sensor_id;sensor_type;location;lat;lon;timestamp;P1;durP1;ratioP1;P2;durP2;ratioP2
2748;SDS011;1382;52.142;11.618;2022-10-26T00:07:37;6.67;;;3.93;;
2748;SDS011;1382;52.142;11.618;2022-10-26T00:08:22;6.50;;;3.30;;
2748;SDS011;1382;52.142;11.618;2022-10-26T00:10:50;5.67;;;4.27;;
2748;SDS011;1382;52.142;11.618;2022-10-26T00:13:30;5.00;;;3.20;;
2748;SDS011;1382;52.142;11.618;2022-10-26T00:16:14;4.87;;;3.43;;
2748;SDS011;1382;52.142;11.618;2022-10-26T00:18:50;6.40;;;3.40;;
2748;SDS011;1382;52.142;11.618;2022-10-26T00:21:29;5.80;;;4.00;;
2748;SDS011;1382;52.142;11.618;2022-10-26T00:24:02;5.77;;;2.90;;
2748;SDS011;1382;52.142;11.618;2022-10-26T00:26:37;11.93;;;5.00;;
2748;SDS011;1382;52.142;11.618;2022-10-26T00:29:04;6.30;;;4.33;;
2748;SDS011;1382;52.142;11.618;2022-10-26T00:31:36;5.67;;;2.90;;
2748;SDS011;1382;52.142;11.618;2022-10-26T00:34:16;3.90;;;3.30;;
2748;SDS011;1382;52.142;11.618;2022-10-26T00:36:43;5.00;;;3.80;;
2748;SDS011;1382;52.142;11.618;2022-10-26T00:39:12;5.17;;;3.30;;
2748;SDS011;1382;52.142;11.618;2022-10-26T00:41:45;4.93;;;3.17;;
2748;SDS011;1382;52.142;11.618;2022-10-26T00:47:24;4.30;;;3.23;;
2748;SDS011;1382;52.142;11.618;2022-10-26T00:50:02;4.37;;;3.50;;
2748;SDS011;1382;52.142;11.618;2022-10-26T00:53:06;4.10;;;3.27;;
2748;SDS011;1382;52.142;11.618;2022-10-26T00:55:35;6.67;;;3.10;;
2748;SDS011;1382;52.142;11.618;2022-10-26T00:58:11;3.53;;;2.97;;
2748;SDS011;1382;52.142;11.618;2022-10-26T01:00:43;3.70;;;2.77;;
2748;SDS011;1382;52.142;11.618;2022-10-26T01:06:07;8.23;;;4.70;;
2748;SDS011;1382;52.142;11.618;2022-10-26T01:08:46;7.70;;;3.00;;
2748;SDS011;1382;52.142;11.618;2022-10-26T01:11:22;3.50;;;3.20;;
2748;SDS011;1382;52.142;11.618;2022-10-26T01:17:05;6.03;;;3.90;;
2748;SDS011;1382;52.142;11.618;2022-10-26T01:20:32;3.60;;;3.30;;
2748;SDS011;1382;52.142;11.618;2022-10-26T01:23:24;6.10;;;3.57;;
2748;SDS011;1382;52.142;11.618;2022-10-26T01:26:04;7.23;;;3.90;;
2748;SDS011;1382;52.142;11.618;2022-10-26T01:28:48;6.67;;;4.20;;
2748;SDS011;1382;52.142;11.618;2022-10-26T01:31:38;6.00;;;4.80;;
2748;SDS011;1382;52.142;11.618;2022-10-26T01:34:11;6.77;;;4.07;;
2748;SDS011;1382;52.142;11.618;2022-10-26T01:36:44;5.10;;;3.27;;
2748;SDS011;1382;52.142;11.618;2022-10-26T01:39:21;7.17;;;4.10;;
2748;SDS011;1382;52.142;11.618;2022-10-26T01:41:54;5.37;;;4.23;;
2748;SDS011;1382;52.142;11.618;2022-10-26T01:44:27;7.67;;;4.27;;
2748;SDS011;1382;52.142;11.618;2022-10-26T01:46:58;4.60;;;3.80;;
2748;SDS011;1382;52.142;11.618;2022-10-26T01:49:27;7.33;;;4.97;;
2748;SDS011;1382;52.142;11.618;2022-10-26T01:52:01;5.30;;;3.77;;
2748;SDS011;1382;52.142;11.618;2022-10-26T01:57:34;5.00;;;3.00;;
2748;SDS011;1382;52.142;11.618;2022-10-26T02:00:04;4.23;;;2.97;;
2748;SDS011;1382;52.142;11.618;2022-10-26T02:05:53;6.23;;;3.97;;
2748;SDS011;1382;52.142;11.618;2022-10-26T02:11:35;3.87;;;3.20;;
2748;SDS011;1382;52.142;11.618;2022-10-26T02:14:06;7.93;;;3.90;;
2748;SDS011;1382;52.142;11.618;2022-10-26T02:16:42;7.60;;;2.70;;
2748;SDS011;1382;52.142;11.618;2022-10-26T02:19:23;5.07;;;3.17;;
2748;SDS011;1382;52.142;11.618;2022-10-26T02:22:05;5.23;;;4.70;;
2748;SDS011;1382;52.142;11.618;2022-10-26T02:24:50;4.13;;;2.93;;
2748;SDS011;1382;52.142;11.618;2022-10-26T02:27:27;5.60;;;3.90;;
2748;SDS011;1382;52.142;11.618;2022-10-26T02:30:17;5.77;;;3.70;;
2748;SDS011;1382;52.142;11.618;2022-10-26T02:32:47;6.77;;;3.97;;
2748;SDS011;1382;52.142;11.618;2022-10-26T02:35:24;6.73;;;3.10;;
2748;SDS011;1382;52.142;11.618;2022-10-26T02:37:54;5.20;;;3.50;;
2748;SDS011;1382;52.142;11.618;2022-10-26T02:40:58;4.73;;;3.30;;
2748;SDS011;1382;52.142;11.618;2022-10-26T02:43:51;6.13;;;4.47;;
2748;SDS011;1382;52.142;11.618;2022-10-26T02:47:47;4.00;;;2.83;;
2748;SDS011;1382;52.142;11.618;2022-10-26T02:51:00;4.80;;;3.27;;
2748;SDS011;1382;52.142;11.618;2022-10-26T02:56:54;5.63;;;3.27;;
2748;SDS011;1382;52.142;11.618;2022-10-26T02:59:32;3.50;;;2.90;;
2748;SDS011;1382;52.142;11.618;2022-10-26T03:05:33;6.20;;;4.33;;
2748;SDS011;1382;52.142;11.618;2022-10-26T03:08:23;5.80;;;4.33;;
2748;SDS011;1382;52.142;11.618;2022-10-26T03:11:01;7.13;;;4.20;;
2748;SDS011;1382;52.142;11.618;2022-10-26T03:13:30;4.33;;;2.97;;
2748;SDS011;1382;52.142;11.618;2022-10-26T03:15:57;5.10;;;3.13;;
2748;SDS011;1382;52.142;11.618;2022-10-26T03:18:29;3.77;;;3.10;;
2748;SDS011;1382;52.142;11.618;2022-10-26T03:20:59;4.67;;;2.57;;
2748;SDS011;1382;52.142;11.618;2022-10-26T03:23:29;4.20;;;3.60;;
2748;SDS011;1382;52.142;11.618;2022-10-26T03:25:56;5.60;;;4.20;;
2748;SDS011;1382;52.142;11.618;2022-10-26T03:28:27;5.30;;;3.73;;
2748;SDS011;1382;52.142;11.618;2022-10-26T03:30:59;9.70;;;3.57;;
2748;SDS011;1382;52.142;11.618;2022-10-26T03:33:46;8.50;;;3.77;;
2748;SDS011;1382;52.142;11.618;2022-10-26T03:36:36;9.80;;;4.70;;
2748;SDS011;1382;52.142;11.618;2022-10-26T03:39:04;14.70;;;8.10;;
2748;SDS011;1382;52.142;11.618;2022-10-26T03:41:31;12.00;;;6.83;;
2748;SDS011;1382;52.142;11.618;2022-10-26T03:43:59;8.90;;;4.37;;
2748;SDS011;1382;52.142;11.618;2022-10-26T03:46:28;8.53;;;4.87;;
2748;SDS011;1382;52.142;11.618;2022-10-26T03:48:58;6.33;;;5.00;;
2748;SDS011;1382;52.142;11.618;2022-10-26T03:51:25;6.80;;;5.00;;
2748;SDS011;1382;52.142;11.618;2022-10-26T03:53:52;4.27;;;3.87;;
2748;SDS011;1382;52.142;11.618;2022-10-26T03:56:20;8.07;;;4.47;;
2748;SDS011;1382;52.142;11.618;2022-10-26T03:58:47;6.47;;;4.87;;
2748;SDS011;1382;52.142;11.618;2022-10-26T04:01:14;8.03;;;4.43;;
2748;SDS011;1382;52.142;11.618;2022-10-26T04:03:41;7.33;;;4.70;;
2748;SDS011;1382;52.142;11.618;2022-10-26T04:06:07;8.43;;;3.07;;
2748;SDS011;1382;52.142;11.618;2022-10-26T04:08:34;7.03;;;4.30;;
2748;SDS011;1382;52.142;11.618;2022-10-26T04:11:01;6.10;;;4.00;;
2748;SDS011;1382;52.142;11.618;2022-10-26T04:13:31;4.90;;;4.10;;
2748;SDS011;1382;52.142;11.618;2022-10-26T04:15:58;7.53;;;4.60;;
2748;SDS011;1382;52.142;11.618;2022-10-26T04:18:25;4.90;;;3.67;;
2748;SDS011;1382;52.142;11.618;2022-10-26T04:20:52;8.20;;;4.27;;
2748;SDS011;1382;52.142;11.618;2022-10-26T04:23:18;5.57;;;4.13;;
2748;SDS011;1382;52.142;11.618;2022-10-26T04:25:45;5.13;;;3.50;;
2748;SDS011;1382;52.142;11.618;2022-10-26T04:28:12;9.03;;;4.90;;
2748;SDS011;1382;52.142;11.618;2022-10-26T04:30:44;7.60;;;4.10;;
2748;SDS011;1382;52.142;11.618;2022-10-26T04:33:13;6.90;;;4.07;;
2748;SDS011;1382;52.142;11.618;2022-10-26T04:35:40;6.40;;;3.63;;
2748;SDS011;1382;52.142;11.618;2022-10-26T04:38:08;5.60;;;3.93;;
2748;SDS011;1382;52.142;11.618;2022-10-26T04:40:35;9.60;;;4.40;;
2748;SDS011;1382;52.142;11.618;2022-10-26T04:43:02;6.70;;;4.27;;
2748;SDS011;1382;52.142;11.618;2022-10-26T04:45:29;4.70;;;4.30;;
2748;SDS011;1382;52.142;11.618;2022-10-26T04:48:02;4.00;;;3.03;;
2748;SDS011;1382;52.142;11.618;2022-10-26T04:50:31;5.40;;;3.63;;
2748;SDS011;1382;52.142;11.618;2022-10-26T04:52:58;8.00;;;5.30;;
2748;SDS011;1382;52.142;11.618;2022-10-26T04:55:25;4.90;;;4.00;;
2748;SDS011;1382;52.142;11.618;2022-10-26T04:57:52;4.33;;;2.90;;
2748;SDS011;1382;52.142;11.618;2022-10-26T05:00:29;3.53;;;3.23;;
2748;SDS011;1382;52.142;11.618;2022-10-26T05:02:59;3.80;;;3.00;;
2748;SDS011;1382;52.142;11.618;2022-10-26T05:05:29;5.30;;;3.80;;
2748;SDS011;1382;52.142;11.618;2022-10-26T05:07:57;5.50;;;4.50;;
2748;SDS011;1382;52.142;11.618;2022-10-26T05:10:24;7.47;;;5.30;;
2748;SDS011;1382;52.142;11.618;2022-10-26T05:12:52;8.60;;;4.30;;
2748;SDS011;1382;52.142;11.618;2022-10-26T05:15:19;8.17;;;4.73;;
2748;SDS011;1382;52.142;11.618;2022-10-26T05:17:46;7.13;;;4.60;;
2748;SDS011;1382;52.142;11.618;2022-10-26T05:20:21;8.53;;;5.33;;
2748;SDS011;1382;52.142;11.618;2022-10-26T05:22:51;5.03;;;4.33;;
2748;SDS011;1382;52.142;11.618;2022-10-26T05:25:18;6.50;;;4.93;;
2748;SDS011;1382;52.142;11.618;2022-10-26T05:27:48;8.93;;;5.40;;
2748;SDS011;1382;52.142;11.618;2022-10-26T05:30:38;6.70;;;4.43;;
2748;SDS011;1382;52.142;11.618;2022-10-26T05:33:09;6.73;;;4.50;;
2748;SDS011;1382;52.142;11.618;2022-10-26T05:35:39;7.47;;;5.47;;
2748;SDS011;1382;52.142;11.618;2022-10-26T05:38:06;11.37;;;5.50;;
2748;SDS011;1382;52.142;11.618;2022-10-26T05:42:17;5.70;;;4.00;;
2748;SDS011;1382;52.142;11.618;2022-10-26T05:44:16;6.60;;;4.20;;
2748;SDS011;1382;52.142;11.618;2022-10-26T05:46:51;9.23;;;4.70;;
2748;SDS011;1382;52.142;11.618;2022-10-26T05:49:20;10.77;;;6.20;;
2748;SDS011;1382;52.142;11.618;2022-10-26T05:51:51;13.00;;;5.00;;
2748;SDS011;1382;52.142;11.618;2022-10-26T05:54:18;8.93;;;6.23;;
2748;SDS011;1382;52.142;11.618;2022-10-26T05:56:45;7.30;;;5.50;;
2748;SDS011;1382;52.142;11.618;2022-10-26T05:59:12;6.43;;;4.93;;
2748;SDS011;1382;52.142;11.618;2022-10-26T06:01:51;9.10;;;5.60;;
2748;SDS011;1382;52.142;11.618;2022-10-26T06:04:28;6.37;;;4.97;;
2748;SDS011;1382;52.142;11.618;2022-10-26T06:07:06;5.70;;;5.00;;
2748;SDS011;1382;52.142;11.618;2022-10-26T06:09:36;10.60;;;6.40;;
2748;SDS011;1382;52.142;11.618;2022-10-26T06:12:04;5.13;;;4.50;;
2748;SDS011;1382;52.142;11.618;2022-10-26T06:14:32;8.83;;;5.90;;
2748;SDS011;1382;52.142;11.618;2022-10-26T06:19:54;9.10;;;6.20;;
2748;SDS011;1382;52.142;11.618;2022-10-26T06:22:36;9.70;;;5.33;;
2748;SDS011;1382;52.142;11.618;2022-10-26T06:25:17;5.40;;;3.63;;
2748;SDS011;1382;52.142;11.618;2022-10-26T06:27:51;10.20;;;4.70;;
2748;SDS011;1382;52.142;11.618;2022-10-26T06:30:28;8.17;;;5.53;;
2748;SDS011;1382;52.142;11.618;2022-10-26T06:32:55;6.17;;;5.07;;
2748;SDS011;1382;52.142;11.618;2022-10-26T06:35:44;7.03;;;5.13;;
2748;SDS011;1382;52.142;11.618;2022-10-26T06:38:18;9.70;;;6.90;;
2748;SDS011;1382;52.142;11.618;2022-10-26T06:40:47;7.37;;;5.27;;
2748;SDS011;1382;52.142;11.618;2022-10-26T06:43:19;15.00;;;6.23;;
2748;SDS011;1382;52.142;11.618;2022-10-26T06:45:50;7.53;;;5.70;;
2748;SDS011;1382;52.142;11.618;2022-10-26T06:48:26;9.07;;;4.73;;
2748;SDS011;1382;52.142;11.618;2022-10-26T06:50:59;7.47;;;5.47;;
2748;SDS011;1382;52.142;11.618;2022-10-26T06:53:28;6.23;;;5.37;;
2748;SDS011;1382;52.142;11.618;2022-10-26T06:55:59;7.63;;;5.50;;
2748;SDS011;1382;52.142;11.618;2022-10-26T06:58:27;6.20;;;4.57;;
2748;SDS011;1382;52.142;11.618;2022-10-26T07:00:58;7.30;;;4.93;;
2748;SDS011;1382;52.142;11.618;2022-10-26T07:03:25;5.83;;;4.20;;
2748;SDS011;1382;52.142;11.618;2022-10-26T07:05:52;7.60;;;5.60;;
2748;SDS011;1382;52.142;11.618;2022-10-26T07:08:19;11.10;;;6.37;;
2748;SDS011;1382;52.142;11.618;2022-10-26T07:10:47;5.40;;;4.67;;
2748;SDS011;1382;52.142;11.618;2022-10-26T07:13:14;8.20;;;6.97;;
2748;SDS011;1382;52.142;11.618;2022-10-26T07:15:40;8.73;;;5.00;;
2748;SDS011;1382;52.142;11.618;2022-10-26T07:18:07;6.57;;;5.67;;
2748;SDS011;1382;52.142;11.618;2022-10-26T07:20:35;11.53;;;7.00;;
2748;SDS011;1382;52.142;11.618;2022-10-26T07:23:03;8.30;;;5.90;;
2748;SDS011;1382;52.142;11.618;2022-10-26T07:25:31;5.20;;;3.97;;
2748;SDS011;1382;52.142;11.618;2022-10-26T07:28:00;9.13;;;5.47;;
2748;SDS011;1382;52.142;11.618;2022-10-26T07:30:28;7.17;;;5.30;;
2748;SDS011;1382;52.142;11.618;2022-10-26T07:32:59;8.47;;;6.80;;
2748;SDS011;1382;52.142;11.618;2022-10-26T07:35:26;7.60;;;6.07;;
2748;SDS011;1382;52.142;11.618;2022-10-26T07:37:56;12.63;;;7.53;;
2748;SDS011;1382;52.142;11.618;2022-10-26T07:40:23;7.97;;;5.43;;
2748;SDS011;1382;52.142;11.618;2022-10-26T07:42:55;7.20;;;5.90;;
2748;SDS011;1382;52.142;11.618;2022-10-26T07:45:23;7.30;;;5.30;;
2748;SDS011;1382;52.142;11.618;2022-10-26T07:47:51;5.90;;;5.30;;
2748;SDS011;1382;52.142;11.618;2022-10-26T07:50:18;8.80;;;6.07;;
2748;SDS011;1382;52.142;11.618;2022-10-26T07:52:45;9.00;;;6.10;;
2748;SDS011;1382;52.142;11.618;2022-10-26T07:55:12;12.53;;;7.00;;
2748;SDS011;1382;52.142;11.618;2022-10-26T07:57:39;8.07;;;6.30;;
2748;SDS011;1382;52.142;11.618;2022-10-26T08:00:07;8.50;;;6.40;;
2748;SDS011;1382;52.142;11.618;2022-10-26T08:02:36;10.67;;;6.53;;
2748;SDS011;1382;52.142;11.618;2022-10-26T08:05:12;7.00;;;4.90;;
2748;SDS011;1382;52.142;11.618;2022-10-26T08:07:40;9.57;;;4.90;;
2748;SDS011;1382;52.142;11.618;2022-10-26T08:10:07;7.17;;;5.03;;
2748;SDS011;1382;52.142;11.618;2022-10-26T08:12:35;8.93;;;5.77;;
2748;SDS011;1382;52.142;11.618;2022-10-26T08:15:14;6.37;;;5.73;;
2748;SDS011;1382;52.142;11.618;2022-10-26T08:17:42;9.57;;;6.50;;
2748;SDS011;1382;52.142;11.618;2022-10-26T08:20:09;8.27;;;5.03;;
2748;SDS011;1382;52.142;11.618;2022-10-26T08:22:37;10.63;;;6.87;;
2748;SDS011;1382;52.142;11.618;2022-10-26T08:25:04;8.40;;;6.00;;
2748;SDS011;1382;52.142;11.618;2022-10-26T08:27:31;7.97;;;6.70;;
2748;SDS011;1382;52.142;11.618;2022-10-26T08:29:57;11.30;;;6.17;;
2748;SDS011;1382;52.142;11.618;2022-10-26T08:32:24;6.23;;;5.63;;
2748;SDS011;1382;52.142;11.618;2022-10-26T08:34:53;8.33;;;6.07;;
2748;SDS011;1382;52.142;11.618;2022-10-26T08:40:02;10.37;;;6.73;;
2748;SDS011;1382;52.142;11.618;2022-10-26T08:42:31;10.93;;;7.13;;
2748;SDS011;1382;52.142;11.618;2022-10-26T08:45:07;9.07;;;5.80;;
2748;SDS011;1382;52.142;11.618;2022-10-26T08:51:27;9.07;;;6.70;;
2748;SDS011;1382;52.142;11.618;2022-10-26T08:54:34;9.23;;;5.93;;
2748;SDS011;1382;52.142;11.618;2022-10-26T08:57:18;14.53;;;7.50;;
2748;SDS011;1382;52.142;11.618;2022-10-26T08:59:51;8.80;;;7.43;;
2748;SDS011;1382;52.142;11.618;2022-10-26T09:02:25;9.00;;;6.63;;
2748;SDS011;1382;52.142;11.618;2022-10-26T09:04:52;9.60;;;6.23;;
2748;SDS011;1382;52.142;11.618;2022-10-26T09:07:34;12.73;;;7.37;;
2748;SDS011;1382;52.142;11.618;2022-10-26T09:10:14;11.30;;;6.70;;
2748;SDS011;1382;52.142;11.618;2022-10-26T09:12:51;10.23;;;7.47;;
2748;SDS011;1382;52.142;11.618;2022-10-26T09:15:26;10.47;;;7.40;;
2748;SDS011;1382;52.142;11.618;2022-10-26T09:18:05;8.97;;;6.97;;
2748;SDS011;1382;52.142;11.618;2022-10-26T09:20:50;13.50;;;7.70;;
2748;SDS011;1382;52.142;11.618;2022-10-26T09:23:38;11.70;;;8.63;;
2748;SDS011;1382;52.142;11.618;2022-10-26T09:26:38;10.57;;;7.37;;
2748;SDS011;1382;52.142;11.618;2022-10-26T09:29:24;8.73;;;6.70;;
2748;SDS011;1382;52.142;11.618;2022-10-26T09:31:54;11.50;;;7.80;;
2748;SDS011;1382;52.142;11.618;2022-10-26T09:34:27;11.23;;;7.70;;
2748;SDS011;1382;52.142;11.618;2022-10-26T09:36:57;8.63;;;5.47;;
2748;SDS011;1382;52.142;11.618;2022-10-26T09:39:37;10.30;;;6.13;;
2748;SDS011;1382;52.142;11.618;2022-10-26T09:42:15;14.20;;;6.83;;
2748;SDS011;1382;52.142;11.618;2022-10-26T09:44:48;8.40;;;6.40;;
2748;SDS011;1382;52.142;11.618;2022-10-26T09:47:22;9.50;;;6.63;;
2748;SDS011;1382;52.142;11.618;2022-10-26T09:50:06;13.63;;;6.30;;
2748;SDS011;1382;52.142;11.618;2022-10-26T09:52:42;7.73;;;6.00;;
2748;SDS011;1382;52.142;11.618;2022-10-26T09:58:36;11.60;;;6.60;;
2748;SDS011;1382;52.142;11.618;2022-10-26T10:01:27;10.13;;;6.43;;
2748;SDS011;1382;52.142;11.618;2022-10-26T10:04:07;12.03;;;6.20;;
2748;SDS011;1382;52.142;11.618;2022-10-26T10:06:36;7.30;;;5.77;;
2748;SDS011;1382;52.142;11.618;2022-10-26T10:09:03;5.23;;;4.73;;
2748;SDS011;1382;52.142;11.618;2022-10-26T10:11:38;9.53;;;5.93;;
2748;SDS011;1382;52.142;11.618;2022-10-26T10:14:15;8.30;;;6.10;;
2748;SDS011;1382;52.142;11.618;2022-10-26T10:16:48;7.37;;;5.90;;
2748;SDS011;1382;52.142;11.618;2022-10-26T10:19:20;7.80;;;5.63;;
2748;SDS011;1382;52.142;11.618;2022-10-26T10:21:49;7.30;;;6.20;;
2748;SDS011;1382;52.142;11.618;2022-10-26T10:24:21;8.93;;;4.90;;
2748;SDS011;1382;52.142;11.618;2022-10-26T10:26:59;10.13;;;6.17;;
2748;SDS011;1382;52.142;11.618;2022-10-26T10:30:18;8.13;;;5.30;;
2748;SDS011;1382;52.142;11.618;2022-10-26T10:32:49;12.13;;;6.67;;
2748;SDS011;1382;52.142;11.618;2022-10-26T10:42:20;9.63;;;6.00;;
2748;SDS011;1382;52.142;11.618;2022-10-26T10:44:55;11.63;;;5.70;;
2748;SDS011;1382;52.142;11.618;2022-10-26T10:47:49;10.47;;;6.10;;
2748;SDS011;1382;52.142;11.618;2022-10-26T10:50:48;11.80;;;5.37;;
2748;SDS011;1382;52.142;11.618;2022-10-26T10:53:17;6.97;;;5.63;;
2748;SDS011;1382;52.142;11.618;2022-10-26T10:56:02;6.47;;;4.17;;
2748;SDS011;1382;52.142;11.618;2022-10-26T10:58:42;8.40;;;5.83;;
2748;SDS011;1382;52.142;11.618;2022-10-26T11:02:16;9.63;;;5.13;;
2748;SDS011;1382;52.142;11.618;2022-10-26T11:05:10;9.37;;;5.73;;
2748;SDS011;1382;52.142;11.618;2022-10-26T11:11:14;9.97;;;5.17;;
2748;SDS011;1382;52.142;11.618;2022-10-26T11:13:46;7.87;;;4.10;;
2748;SDS011;1382;52.142;11.618;2022-10-26T11:16:19;6.90;;;4.67;;
2748;SDS011;1382;52.142;11.618;2022-10-26T11:18:50;14.77;;;5.40;;
2748;SDS011;1382;52.142;11.618;2022-10-26T11:21:22;8.23;;;4.67;;
2748;SDS011;1382;52.142;11.618;2022-10-26T11:23:53;8.50;;;4.83;;
2748;SDS011;1382;52.142;11.618;2022-10-26T11:26:28;8.67;;;4.83;;
2748;SDS011;1382;52.142;11.618;2022-10-26T11:29:00;6.30;;;5.07;;
2748;SDS011;1382;52.142;11.618;2022-10-26T11:31:31;10.37;;;5.50;;
2748;SDS011;1382;52.142;11.618;2022-10-26T11:34:13;6.23;;;3.80;;
2748;SDS011;1382;52.142;11.618;2022-10-26T11:36:45;7.43;;;5.13;;
2748;SDS011;1382;52.142;11.618;2022-10-26T11:39:19;8.73;;;5.03;;
2748;SDS011;1382;52.142;11.618;2022-10-26T11:41:54;7.40;;;5.17;;
2748;SDS011;1382;52.142;11.618;2022-10-26T11:44:28;8.20;;;5.13;;
2748;SDS011;1382;52.142;11.618;2022-10-26T11:47:00;8.40;;;4.53;;
2748;SDS011;1382;52.142;11.618;2022-10-26T11:49:32;7.80;;;4.37;;
2748;SDS011;1382;52.142;11.618;2022-10-26T11:52:07;9.03;;;5.60;;
2748;SDS011;1382;52.142;11.618;2022-10-26T11:54:39;11.97;;;5.50;;
2748;SDS011;1382;52.142;11.618;2022-10-26T11:57:10;7.63;;;5.37;;
2748;SDS011;1382;52.142;11.618;2022-10-26T11:59:41;8.07;;;5.30;;
2748;SDS011;1382;52.142;11.618;2022-10-26T12:02:13;8.70;;;4.80;;
2748;SDS011;1382;52.142;11.618;2022-10-26T12:04:43;8.93;;;4.20;;
2748;SDS011;1382;52.142;11.618;2022-10-26T12:07:15;7.77;;;4.73;;
2748;SDS011;1382;52.142;11.618;2022-10-26T12:09:48;6.57;;;4.47;;
2748;SDS011;1382;52.142;11.618;2022-10-26T12:12:18;6.80;;;5.00;;
2748;SDS011;1382;52.142;11.618;2022-10-26T12:14:50;8.13;;;5.07;;
2748;SDS011;1382;52.142;11.618;2022-10-26T12:17:30;7.87;;;4.83;;
2748;SDS011;1382;52.142;11.618;2022-10-26T12:20:53;7.03;;;4.60;;
2748;SDS011;1382;52.142;11.618;2022-10-26T12:23:22;6.60;;;4.60;;
2748;SDS011;1382;52.142;11.618;2022-10-26T12:26:36;9.70;;;4.80;;
2748;SDS011;1382;52.142;11.618;2022-10-26T12:29:22;4.00;;;3.30;;
2748;SDS011;1382;52.142;11.618;2022-10-26T12:41:22;8.73;;;4.70;;
2748;SDS011;1382;52.142;11.618;2022-10-26T12:43:56;10.70;;;4.40;;
2748;SDS011;1382;52.142;11.618;2022-10-26T12:52:24;5.07;;;3.50;;
2748;SDS011;1382;52.142;11.618;2022-10-26T12:55:12;8.67;;;4.93;;
2748;SDS011;1382;52.142;11.618;2022-10-26T13:00:52;8.20;;;3.63;;
2748;SDS011;1382;52.142;11.618;2022-10-26T13:03:37;5.00;;;3.50;;
2748;SDS011;1382;52.142;11.618;2022-10-26T13:06:16;6.20;;;4.00;;
2748;SDS011;1382;52.142;11.618;2022-10-26T13:08:56;8.40;;;3.80;;
2748;SDS011;1382;52.142;11.618;2022-10-26T13:11:29;5.17;;;3.70;;
2748;SDS011;1382;52.142;11.618;2022-10-26T13:13:57;6.93;;;3.67;;
2748;SDS011;1382;52.142;11.618;2022-10-26T13:16:27;6.23;;;3.57;;
2748;SDS011;1382;52.142;11.618;2022-10-26T13:18:55;6.97;;;3.70;;
2748;SDS011;1382;52.142;11.618;2022-10-26T13:21:23;6.67;;;3.60;;
2748;SDS011;1382;52.142;11.618;2022-10-26T13:23:55;7.00;;;3.67;;
2748;SDS011;1382;52.142;11.618;2022-10-26T13:26:24;5.60;;;3.20;;
2748;SDS011;1382;52.142;11.618;2022-10-26T13:28:54;8.00;;;3.87;;
2748;SDS011;1382;52.142;11.618;2022-10-26T13:34:23;9.97;;;3.27;;
2748;SDS011;1382;52.142;11.618;2022-10-26T13:36:58;4.27;;;2.33;;
2748;SDS011;1382;52.142;11.618;2022-10-26T13:39:31;7.83;;;3.30;;
2748;SDS011;1382;52.142;11.618;2022-10-26T13:42:02;8.57;;;3.27;;
2748;SDS011;1382;52.142;11.618;2022-10-26T13:44:35;7.40;;;3.37;;
2748;SDS011;1382;52.142;11.618;2022-10-26T13:47:06;7.00;;;2.97;;
2748;SDS011;1382;52.142;11.618;2022-10-26T13:49:38;3.80;;;2.73;;
2748;SDS011;1382;52.142;11.618;2022-10-26T13:52:11;3.40;;;3.10;;
2748;SDS011;1382;52.142;11.618;2022-10-26T13:54:41;6.30;;;2.77;;
2748;SDS011;1382;52.142;11.618;2022-10-26T13:57:13;7.30;;;3.40;;
2748;SDS011;1382;52.142;11.618;2022-10-26T13:59:46;3.70;;;2.43;;
2748;SDS011;1382;52.142;11.618;2022-10-26T14:02:17;4.87;;;2.90;;
2748;SDS011;1382;52.142;11.618;2022-10-26T14:04:50;4.73;;;3.00;;
2748;SDS011;1382;52.142;11.618;2022-10-26T14:07:19;6.33;;;2.93;;
2748;SDS011;1382;52.142;11.618;2022-10-26T14:09:52;6.70;;;3.10;;
2748;SDS011;1382;52.142;11.618;2022-10-26T14:12:20;3.57;;;2.70;;
2748;SDS011;1382;52.142;11.618;2022-10-26T14:14:48;3.97;;;2.47;;
2748;SDS011;1382;52.142;11.618;2022-10-26T14:17:17;3.43;;;2.70;;
2748;SDS011;1382;52.142;11.618;2022-10-26T14:19:45;3.90;;;2.40;;
2748;SDS011;1382;52.142;11.618;2022-10-26T14:22:20;5.10;;;2.20;;
2748;SDS011;1382;52.142;11.618;2022-10-26T14:24:49;4.37;;;2.30;;
2748;SDS011;1382;52.142;11.618;2022-10-26T14:27:18;4.93;;;2.47;;
2748;SDS011;1382;52.142;11.618;2022-10-26T14:29:48;3.80;;;2.20;;
2748;SDS011;1382;52.142;11.618;2022-10-26T14:32:36;2.60;;;1.60;;
2748;SDS011;1382;52.142;11.618;2022-10-26T14:35:03;2.47;;;2.27;;
2748;SDS011;1382;52.142;11.618;2022-10-26T14:37:34;3.33;;;2.27;;
2748;SDS011;1382;52.142;11.618;2022-10-26T14:40:11;4.40;;;2.50;;
2748;SDS011;1382;52.142;11.618;2022-10-26T14:42:41;2.50;;;2.17;;
2748;SDS011;1382;52.142;11.618;2022-10-26T14:45:20;6.13;;;2.30;;
2748;SDS011;1382;52.142;11.618;2022-10-26T14:48:13;4.23;;;2.67;;
2748;SDS011;1382;52.142;11.618;2022-10-26T14:50:56;6.27;;;2.30;;
2748;SDS011;1382;52.142;11.618;2022-10-26T14:53:28;7.90;;;3.00;;
2748;SDS011;1382;52.142;11.618;2022-10-26T14:55:59;6.97;;;2.70;;
2748;SDS011;1382;52.142;11.618;2022-10-26T14:58:27;4.97;;;2.80;;
2748;SDS011;1382;52.142;11.618;2022-10-26T15:01:15;4.87;;;2.90;;
2748;SDS011;1382;52.142;11.618;2022-10-26T15:03:59;6.80;;;3.23;;
2748;SDS011;1382;52.142;11.618;2022-10-26T15:06:32;6.63;;;2.90;;
2748;SDS011;1382;52.142;11.618;2022-10-26T15:12:03;6.30;;;2.47;;
2748;SDS011;1382;52.142;11.618;2022-10-26T15:14:30;6.20;;;2.67;;
2748;SDS011;1382;52.142;11.618;2022-10-26T15:17:00;3.50;;;2.67;;
2748;SDS011;1382;52.142;11.618;2022-10-26T15:19:28;5.30;;;2.50;;
2748;SDS011;1382;52.142;11.618;2022-10-26T15:21:55;3.03;;;2.03;;
2748;SDS011;1382;52.142;11.618;2022-10-26T15:24:29;5.17;;;2.63;;
2748;SDS011;1382;52.142;11.618;2022-10-26T15:27:03;9.50;;;2.10;;
2748;SDS011;1382;52.142;11.618;2022-10-26T15:29:39;4.63;;;2.90;;
2748;SDS011;1382;52.142;11.618;2022-10-26T15:32:19;6.03;;;3.23;;
2748;SDS011;1382;52.142;11.618;2022-10-26T15:37:56;4.27;;;2.63;;
2748;SDS011;1382;52.142;11.618;2022-10-26T15:40:24;4.93;;;2.40;;
2748;SDS011;1382;52.142;11.618;2022-10-26T15:42:52;5.97;;;2.87;;
2748;SDS011;1382;52.142;11.618;2022-10-26T15:45:21;5.20;;;2.40;;
2748;SDS011;1382;52.142;11.618;2022-10-26T15:47:50;4.90;;;2.00;;
2748;SDS011;1382;52.142;11.618;2022-10-26T15:50:19;7.90;;;3.53;;
2748;SDS011;1382;52.142;11.618;2022-10-26T15:52:47;3.73;;;2.43;;
2748;SDS011;1382;52.142;11.618;2022-10-26T15:55:15;5.37;;;2.73;;
2748;SDS011;1382;52.142;11.618;2022-10-26T15:57:42;4.00;;;2.87;;
2748;SDS011;1382;52.142;11.618;2022-10-26T16:00:13;4.10;;;2.60;;
2748;SDS011;1382;52.142;11.618;2022-10-26T16:02:41;5.90;;;2.30;;
2748;SDS011;1382;52.142;11.618;2022-10-26T16:05:11;6.67;;;3.30;;
2748;SDS011;1382;52.142;11.618;2022-10-26T16:07:39;5.40;;;2.73;;
2748;SDS011;1382;52.142;11.618;2022-10-26T16:10:11;4.30;;;2.80;;
2748;SDS011;1382;52.142;11.618;2022-10-26T16:12:39;5.93;;;2.80;;
2748;SDS011;1382;52.142;11.618;2022-10-26T16:15:07;4.10;;;3.00;;
2748;SDS011;1382;52.142;11.618;2022-10-26T16:17:40;12.30;;;3.03;;
2748;SDS011;1382;52.142;11.618;2022-10-26T16:20:08;3.90;;;2.43;;
2748;SDS011;1382;52.142;11.618;2022-10-26T16:22:48;6.07;;;2.83;;
2748;SDS011;1382;52.142;11.618;2022-10-26T16:25:18;4.57;;;3.03;;
2748;SDS011;1382;52.142;11.618;2022-10-26T16:27:46;6.43;;;2.90;;
2748;SDS011;1382;52.142;11.618;2022-10-26T16:30:13;7.47;;;3.57;;
2748;SDS011;1382;52.142;11.618;2022-10-26T16:32:41;8.60;;;3.10;;
2748;SDS011;1382;52.142;11.618;2022-10-26T16:35:08;6.20;;;3.13;;
2748;SDS011;1382;52.142;11.618;2022-10-26T16:37:36;5.70;;;2.80;;
2748;SDS011;1382;52.142;11.618;2022-10-26T16:40:04;4.57;;;2.90;;
2748;SDS011;1382;52.142;11.618;2022-10-26T16:42:32;5.33;;;3.40;;
2748;SDS011;1382;52.142;11.618;2022-10-26T16:44:59;7.40;;;3.10;;
2748;SDS011;1382;52.142;11.618;2022-10-26T16:47:28;7.00;;;3.10;;
2748;SDS011;1382;52.142;11.618;2022-10-26T16:49:57;4.73;;;2.40;;
2748;SDS011;1382;52.142;11.618;2022-10-26T16:52:24;5.83;;;2.53;;
2748;SDS011;1382;52.142;11.618;2022-10-26T16:54:52;3.37;;;2.30;;
2748;SDS011;1382;52.142;11.618;2022-10-26T16:57:19;7.73;;;2.43;;
2748;SDS011;1382;52.142;11.618;2022-10-26T16:59:46;4.60;;;1.83;;
2748;SDS011;1382;52.142;11.618;2022-10-26T17:02:13;8.10;;;2.60;;